createdAt,value
2017-11-04T00:01:16.547Z,15.20
2017-11-04T00:03:45.958Z,15.47
2017-11-04T00:06:15.466Z,17.63
2017-11-04T00:08:44.774Z,15.93
2017-11-04T00:11:14.053Z,15.03
2017-11-04T00:13:43.366Z,17.00
2017-11-04T00:16:12.770Z,15.37
2017-11-04T00:18:42.148Z,16.10
2017-11-04T00:21:11.398Z,16.60
2017-11-04T00:23:40.662Z,17.37
2017-11-04T00:26:09.906Z,17.80
2017-11-04T00:28:39.354Z,16.33
2017-11-04T00:31:08.607Z,17.37
2017-11-04T00:33:37.872Z,15.70
2017-11-04T00:36:07.311Z,15.50
2017-11-04T00:38:37.318Z,16.67
2017-11-04T00:41:06.562Z,14.97
2017-11-04T00:43:35.814Z,15.50
2017-11-04T00:46:05.938Z,18.23
2017-11-04T00:48:35.961Z,18.00
2017-11-04T00:51:05.198Z,16.57
2017-11-04T00:53:34.453Z,15.30
2017-11-04T00:56:04.573Z,16.13
2017-11-04T00:58:34.570Z,17.07
2017-11-04T01:01:03.821Z,17.00
2017-11-04T01:03:33.088Z,17.40
2017-11-04T01:06:02.331Z,15.77
2017-11-04T01:08:31.570Z,18.13
2017-11-04T01:11:00.837Z,19.50
2017-11-04T01:13:31.016Z,16.73
2017-11-04T01:16:00.287Z,17.37
2017-11-04T01:18:29.566Z,17.50
2017-11-04T01:20:58.794Z,19.27
2017-11-04T01:23:28.050Z,18.00
2017-11-04T01:25:57.358Z,18.93
2017-11-04T01:28:26.707Z,18.37
2017-11-04T01:30:55.961Z,17.73
2017-11-04T01:33:25.340Z,17.13
2017-11-04T01:35:54.817Z,15.90
2017-11-04T01:38:24.062Z,18.37
2017-11-04T01:40:53.318Z,17.83
2017-11-04T01:43:22.575Z,19.00
2017-11-04T01:45:51.863Z,16.87
2017-11-04T01:48:20.486Z,20.10
2017-11-04T01:50:49.814Z,18.73
2017-11-04T01:53:19.039Z,18.93
2017-11-04T01:55:48.311Z,19.90
2017-11-04T01:58:17.564Z,19.20
2017-11-04T02:00:46.868Z,17.57
2017-11-04T02:03:16.206Z,16.80
2017-11-04T02:05:45.467Z,18.77
2017-11-04T02:08:14.755Z,18.90
2017-11-04T02:10:44.761Z,18.00
2017-11-04T02:13:14.024Z,19.03
2017-11-04T02:15:43.279Z,18.50
2017-11-04T02:18:12.528Z,22.30
2017-11-04T02:20:42.049Z,18.13
2017-11-04T02:23:12.110Z,20.00
2017-11-04T02:25:41.378Z,19.13
2017-11-04T02:28:10.734Z,21.27
2017-11-04T02:30:40.078Z,18.50
2017-11-04T02:33:10.114Z,18.30
2017-11-04T02:35:39.367Z,19.80
2017-11-04T02:38:08.628Z,21.13
2017-11-04T02:40:38.539Z,20.57
2017-11-04T02:43:07.932Z,20.53
2017-11-04T02:45:37.148Z,18.73
2017-11-04T02:48:06.464Z,21.00
2017-11-04T02:50:35.697Z,18.97
2017-11-04T02:53:05.010Z,20.33
2017-11-04T02:55:35.066Z,19.97
2017-11-04T02:58:04.340Z,18.47
2017-11-04T03:00:33.739Z,18.67
2017-11-04T03:03:03.858Z,20.60
2017-11-04T03:05:33.863Z,18.90
2017-11-04T03:08:03.282Z,20.50
2017-11-04T03:10:32.611Z,20.60
2017-11-04T03:13:02.108Z,20.70
2017-11-04T03:15:32.142Z,20.43
2017-11-04T03:18:01.728Z,21.83
2017-11-04T03:20:31.763Z,20.93
2017-11-04T03:23:00.999Z,20.30
2017-11-04T03:25:30.257Z,19.20
2017-11-04T03:28:00.388Z,18.63
2017-11-04T03:30:29.631Z,19.30
2017-11-04T03:32:58.902Z,20.37
2017-11-04T03:35:28.181Z,20.10
2017-11-04T03:37:57.769Z,20.80
2017-11-04T03:40:27.782Z,21.10
2017-11-04T03:42:57.054Z,21.03
2017-11-04T03:45:26.288Z,19.90
2017-11-04T03:47:56.329Z,19.90
2017-11-04T03:50:25.563Z,19.40
2017-11-04T03:52:54.802Z,20.00
2017-11-04T03:55:24.071Z,20.47
2017-11-04T03:57:53.399Z,19.87
2017-11-04T04:00:22.717Z,19.27
2017-11-04T04:02:52.746Z,18.70
2017-11-04T04:05:22.059Z,19.77
2017-11-04T04:07:51.534Z,19.33
2017-11-04T04:10:20.794Z,21.37
2017-11-04T04:12:50.047Z,20.57
2017-11-04T04:15:20.159Z,22.63
2017-11-04T04:17:49.463Z,21.57
2017-11-04T04:20:19.633Z,20.37
2017-11-04T04:22:48.885Z,21.60
2017-11-04T04:25:18.899Z,18.20
2017-11-04T04:27:48.170Z,19.00
2017-11-04T04:30:17.435Z,21.70
2017-11-04T04:32:46.698Z,18.30
2017-11-04T04:35:16.035Z,21.87
2017-11-04T04:37:45.346Z,19.77
2017-11-04T04:40:14.630Z,20.53
2017-11-04T04:42:43.875Z,20.10
2017-11-04T04:45:13.135Z,18.67
2017-11-04T04:47:42.394Z,20.17
2017-11-04T04:50:11.638Z,18.40
2017-11-04T04:52:40.875Z,17.80
2017-11-04T04:55:10.164Z,19.70
2017-11-04T04:57:39.420Z,19.17
2017-11-04T05:00:08.742Z,20.37
2017-11-04T05:02:38.114Z,18.77
2017-11-04T05:05:08.135Z,21.23
2017-11-04T05:07:37.534Z,21.10
2017-11-04T05:10:07.665Z,17.90
2017-11-04T05:12:37.771Z,20.60
2017-11-04T05:15:07.783Z,19.30
2017-11-04T05:17:37.186Z,18.83
2017-11-04T05:20:06.488Z,17.93
2017-11-04T05:22:35.750Z,19.47
2017-11-04T05:25:05.011Z,19.77
2017-11-04T05:27:34.245Z,17.13
2017-11-04T05:30:03.513Z,17.83
2017-11-04T05:32:32.994Z,19.63
2017-11-04T05:35:02.238Z,19.73
2017-11-04T05:37:31.603Z,19.43
2017-11-04T05:40:01.005Z,20.13
2017-11-04T05:42:30.278Z,18.37
2017-11-04T05:44:59.562Z,20.47
2017-11-04T05:47:28.817Z,19.00
2017-11-04T05:49:58.823Z,19.70
2017-11-04T05:52:28.075Z,16.93
2017-11-04T05:54:57.328Z,18.17
2017-11-04T05:57:27.437Z,18.43
2017-11-04T05:59:56.703Z,19.20
2017-11-04T06:02:26.014Z,19.30
2017-11-04T06:04:55.255Z,20.57
2017-11-04T06:07:24.686Z,18.90
2017-11-04T06:09:53.961Z,19.10
2017-11-04T06:12:23.222Z,19.27
2017-11-04T06:14:52.663Z,17.00
2017-11-04T06:17:22.056Z,19.83
2017-11-04T06:19:52.290Z,16.67
2017-11-04T06:22:22.287Z,22.17
2017-11-04T06:24:51.542Z,21.23
2017-11-04T06:27:20.786Z,20.10
2017-11-04T06:29:50.211Z,19.00
2017-11-04T06:32:19.490Z,20.90
2017-11-04T06:34:48.739Z,21.07
2017-11-04T06:37:18.090Z,21.70
2017-11-04T06:39:48.472Z,20.37
2017-11-04T06:42:17.881Z,22.07
2017-11-04T06:44:48.204Z,22.47
2017-11-04T06:47:17.592Z,21.77
2017-11-04T06:49:46.878Z,22.60
2017-11-04T06:52:16.923Z,22.40
2017-11-04T06:54:46.184Z,23.30
2017-11-04T06:57:15.493Z,20.60
2017-11-04T06:59:44.746Z,22.80
2017-11-04T07:02:14.021Z,22.47
2017-11-04T07:04:43.298Z,24.17
2017-11-04T07:07:13.339Z,23.20
2017-11-04T07:09:42.598Z,23.70
2017-11-04T07:12:12.012Z,21.20
2017-11-04T07:14:41.352Z,25.17
2017-11-04T07:17:10.604Z,22.97
2017-11-04T07:19:39.890Z,23.20
2017-11-04T07:22:09.143Z,24.00
2017-11-04T07:24:38.498Z,22.73
2017-11-04T07:27:07.826Z,23.70
2017-11-04T07:29:38.146Z,29.30
2017-11-04T07:32:07.423Z,27.73
2017-11-04T07:34:36.954Z,27.03
2017-11-04T07:37:06.238Z,29.73
2017-11-04T07:39:35.622Z,27.83
2017-11-04T07:42:04.900Z,24.63
2017-11-04T07:44:34.150Z,24.70
2017-11-04T07:47:03.420Z,21.63
2017-11-04T07:49:33.314Z,22.23
2017-11-04T07:52:03.682Z,22.90
2017-11-04T07:54:32.942Z,24.43
2017-11-04T07:57:03.055Z,24.80
2017-11-04T07:59:33.202Z,23.63
2017-11-04T08:02:02.474Z,23.57
2017-11-04T08:04:31.738Z,24.70
2017-11-04T08:07:01.015Z,24.17
2017-11-04T08:09:30.265Z,24.27
2017-11-04T08:11:59.657Z,22.60
2017-11-04T08:14:28.931Z,21.27
2017-11-04T08:16:58.403Z,22.10
2017-11-04T08:19:28.531Z,21.20
2017-11-04T08:21:57.786Z,21.47
2017-11-04T08:24:27.038Z,21.90
2017-11-04T08:26:56.362Z,22.30
2017-11-04T08:29:26.002Z,20.43
2017-11-04T08:31:55.258Z,22.30
2017-11-04T08:34:25.375Z,20.80
2017-11-04T08:36:57.484Z,22.20
2017-11-04T08:39:26.746Z,20.43
2017-11-04T08:41:56.013Z,22.60
2017-11-04T08:44:25.365Z,21.93
2017-11-04T08:46:54.575Z,22.60
2017-11-04T08:49:23.882Z,22.80
2017-11-04T08:51:53.130Z,23.70
2017-11-04T08:54:22.398Z,23.27
2017-11-04T08:56:51.674Z,23.07
2017-11-04T08:59:20.922Z,23.53
2017-11-04T09:01:50.343Z,24.47
2017-11-04T09:04:20.390Z,26.20
2017-11-04T09:06:49.811Z,24.80
2017-11-04T09:09:19.830Z,24.37
2017-11-04T09:11:49.256Z,23.73
2017-11-04T09:14:18.523Z,23.80
2017-11-04T09:16:48.545Z,24.70
2017-11-04T09:19:17.816Z,24.90
2017-11-04T09:21:47.261Z,24.20
2017-11-04T09:24:17.352Z,23.67
2017-11-04T09:26:46.890Z,23.77
2017-11-04T09:29:16.149Z,24.67
2017-11-04T09:31:45.444Z,23.57
2017-11-04T09:34:14.723Z,25.70
2017-11-04T09:36:44.014Z,24.87
2017-11-04T09:39:13.304Z,25.03
2017-11-04T09:41:42.681Z,26.47
2017-11-04T09:44:12.785Z,28.70
2017-11-04T09:46:42.066Z,27.40
2017-11-04T09:49:11.328Z,28.13
2017-11-04T09:51:40.606Z,29.37
2017-11-04T09:54:10.623Z,28.50
2017-11-04T09:56:40.680Z,31.97
2017-11-04T09:59:09.926Z,27.67
2017-11-04T10:01:40.705Z,29.83
2017-11-04T10:04:10.150Z,28.70
2017-11-04T10:06:39.423Z,29.40
2017-11-04T10:09:08.717Z,25.70
2017-11-04T10:11:37.982Z,28.87
2017-11-04T10:14:08.020Z,27.57
2017-11-04T10:16:37.403Z,29.47
2017-11-04T10:19:07.458Z,30.17
2017-11-04T10:21:36.720Z,29.17
2017-11-04T10:24:06.088Z,29.60
2017-11-04T10:26:36.147Z,30.37
2017-11-04T10:29:05.412Z,28.00
2017-11-04T10:31:34.668Z,27.53
2017-11-04T10:34:03.951Z,29.53
2017-11-04T10:36:33.200Z,26.70
2017-11-04T10:39:02.467Z,27.30
2017-11-04T10:41:31.743Z,30.40
2017-11-04T10:44:01.031Z,30.07
2017-11-04T10:46:30.316Z,27.63
2017-11-04T10:48:59.716Z,28.67
2017-11-04T10:51:29.012Z,26.13
2017-11-04T10:53:59.038Z,29.77
2017-11-04T10:56:28.304Z,27.30
2017-11-04T10:58:57.852Z,30.47
2017-11-04T11:01:27.904Z,30.60
2017-11-04T11:03:57.163Z,28.03
2017-11-04T11:06:26.426Z,29.27
2017-11-04T11:08:55.687Z,28.00
2017-11-04T11:11:25.718Z,27.50
2017-11-04T11:13:55.277Z,27.93
2017-11-04T11:16:24.651Z,27.27
2017-11-04T11:18:53.918Z,29.33
2017-11-04T11:21:23.961Z,27.17
2017-11-04T11:23:53.235Z,29.87
2017-11-04T11:26:22.497Z,28.37
2017-11-04T11:28:51.757Z,26.43
2017-11-04T11:31:21.011Z,27.43
2017-11-04T11:33:50.306Z,26.97
2017-11-04T11:36:19.562Z,29.87
2017-11-04T11:38:49.036Z,27.80
2017-11-04T11:41:18.314Z,27.13
2017-11-04T11:43:48.503Z,26.00
2017-11-04T11:46:17.955Z,28.70
2017-11-04T11:48:47.251Z,28.70
2017-11-04T11:51:16.702Z,25.60
2017-11-04T11:53:45.956Z,28.00
2017-11-04T11:56:16.479Z,27.30
2017-11-04T11:58:46.630Z,29.47
2017-11-04T12:01:15.894Z,29.40
2017-11-04T12:03:45.189Z,25.67
2017-11-04T12:06:14.439Z,29.20
2017-11-04T12:08:43.837Z,28.20
2017-11-04T12:11:13.543Z,26.07
2017-11-04T12:13:43.037Z,28.37
2017-11-04T12:16:13.089Z,27.73
2017-11-04T12:18:42.335Z,28.73
2017-11-04T12:21:11.749Z,28.77
2017-11-04T12:23:41.818Z,28.50
2017-11-04T12:26:11.189Z,29.30
2017-11-04T12:28:41.418Z,28.47
2017-11-04T12:31:10.697Z,25.83
2017-11-04T12:33:39.936Z,29.43
2017-11-04T12:36:09.208Z,29.40
2017-11-04T12:38:39.243Z,26.57
2017-11-04T12:41:09.274Z,28.40
2017-11-04T12:43:38.949Z,27.93
2017-11-04T12:46:08.218Z,28.20
2017-11-04T12:48:37.846Z,29.27
2017-11-04T12:51:07.155Z,29.47
2017-11-04T12:53:36.419Z,26.87
2017-11-04T12:56:05.917Z,28.20
2017-11-04T12:58:35.354Z,28.23
2017-11-04T13:01:04.918Z,26.70
2017-11-04T13:03:34.210Z,29.13
2017-11-04T13:06:03.498Z,27.93
2017-11-04T13:08:32.770Z,27.80
2017-11-04T13:11:02.062Z,27.70
2017-11-04T13:13:31.314Z,25.87
2017-11-04T13:16:00.590Z,28.80
2017-11-04T13:18:29.890Z,30.70
2017-11-04T13:21:00.018Z,29.70
2017-11-04T13:23:29.277Z,28.00
2017-11-04T13:25:58.537Z,27.33
2017-11-04T13:28:27.819Z,26.03
2017-11-04T13:30:57.235Z,28.43
2017-11-04T13:33:26.437Z,28.17
2017-11-04T13:35:55.723Z,27.67
2017-11-04T13:38:25.213Z,27.83
2017-11-04T13:40:54.503Z,26.40
2017-11-04T13:43:24.682Z,31.00
2017-11-04T13:45:53.927Z,32.07
2017-11-04T13:48:23.968Z,30.93
2017-11-04T13:50:53.223Z,29.33
2017-11-04T13:53:22.487Z,29.87
2017-11-04T13:55:51.902Z,28.83
2017-11-04T13:58:21.202Z,29.13
2017-11-04T14:00:50.612Z,26.77
2017-11-04T14:03:19.862Z,27.70
2017-11-04T14:05:49.133Z,26.30
2017-11-04T14:08:18.473Z,29.53
2017-11-04T14:10:48.614Z,27.07
2017-11-04T14:13:17.847Z,24.43
2017-11-04T14:15:47.302Z,29.70
2017-11-04T14:18:17.451Z,26.40
2017-11-04T14:20:46.730Z,28.00
2017-11-04T14:23:16.768Z,31.37
2017-11-04T14:25:46.044Z,25.90
2017-11-04T14:28:15.440Z,26.30
2017-11-04T14:30:45.494Z,27.53
2017-11-04T14:33:14.954Z,27.00
2017-11-04T14:35:44.231Z,25.63
2017-11-04T14:38:13.510Z,27.07
2017-11-04T14:40:42.760Z,27.20
2017-11-04T14:43:12.051Z,26.23
2017-11-04T14:45:41.319Z,25.83
2017-11-04T14:48:10.600Z,25.77
2017-11-04T14:50:40.630Z,26.60
2017-11-04T14:53:09.937Z,25.77
2017-11-04T14:55:39.275Z,24.47
2017-11-04T14:58:08.556Z,25.80
2017-11-04T15:00:37.843Z,25.30
2017-11-04T15:03:07.926Z,24.50
2017-11-04T15:05:37.178Z,27.07
2017-11-04T15:08:06.422Z,26.10
2017-11-04T15:10:35.713Z,26.07
2017-11-04T15:13:06.591Z,25.63
2017-11-04T15:15:36.633Z,25.53
2017-11-04T15:18:05.897Z,24.27
2017-11-04T15:20:35.220Z,24.30
2017-11-04T15:23:04.463Z,23.67
2017-11-04T15:25:33.712Z,23.00
2017-11-04T15:28:03.001Z,23.47
2017-11-04T15:30:33.053Z,23.30
2017-11-04T15:33:02.429Z,23.97
2017-11-04T15:35:32.490Z,23.77
2017-11-04T15:38:01.776Z,24.93
2017-11-04T15:40:31.056Z,22.87
2017-11-04T15:43:00.450Z,22.50
2017-11-04T15:45:30.473Z,20.47
2017-11-04T15:47:59.754Z,22.40
2017-11-04T15:50:29.005Z,23.20
2017-11-04T15:52:58.406Z,22.37
2017-11-04T15:55:27.775Z,24.07
2017-11-04T15:57:58.118Z,20.70
2017-11-04T16:00:27.602Z,20.70
2017-11-04T16:02:57.635Z,21.37
2017-11-04T16:05:26.884Z,19.23
2017-11-04T16:07:56.328Z,21.00
2017-11-04T16:10:26.345Z,22.03
2017-11-04T16:12:55.618Z,22.03
2017-11-04T16:15:24.860Z,21.47
2017-11-04T16:17:54.950Z,21.50
2017-11-04T16:20:24.194Z,19.57
2017-11-04T16:22:53.456Z,19.73
2017-11-04T16:25:22.752Z,20.40
2017-11-04T16:27:52.782Z,20.80
2017-11-04T16:30:22.319Z,21.87
2017-11-04T16:32:51.586Z,19.60
2017-11-04T16:35:21.015Z,20.10
2017-11-04T16:37:50.243Z,19.83
2017-11-04T16:40:19.485Z,21.60
2017-11-04T16:42:48.758Z,23.50
2017-11-04T16:45:18.043Z,29.37
2017-11-04T16:47:47.324Z,21.50
2017-11-04T16:50:16.958Z,19.17
2017-11-04T16:52:46.207Z,20.20
2017-11-04T16:55:16.243Z,21.23
2017-11-04T16:57:45.561Z,22.30
2017-11-04T17:00:14.799Z,20.17
2017-11-04T17:02:44.082Z,23.33
2017-11-04T17:05:13.351Z,24.47
2017-11-04T17:07:43.463Z,26.77
2017-11-04T17:10:12.867Z,28.43
2017-11-04T17:12:42.135Z,30.00
2017-11-04T17:15:12.901Z,27.63
2017-11-04T17:17:42.310Z,43.83
2017-11-04T17:20:11.569Z,70.13
2017-11-04T17:22:40.834Z,36.30
2017-11-04T17:25:10.134Z,32.50
2017-11-04T17:27:39.413Z,23.20
2017-11-04T17:30:08.675Z,27.47
2017-11-04T17:32:37.942Z,24.97
2017-11-04T17:35:07.223Z,23.43
2017-11-04T17:37:37.212Z,26.80
2017-11-04T17:40:06.490Z,25.17
2017-11-04T17:42:35.798Z,26.87
2017-11-04T17:45:05.063Z,22.73
2017-11-04T17:47:34.310Z,27.30
2017-11-04T17:50:03.799Z,30.67
2017-11-04T17:52:33.039Z,28.77
2017-11-04T17:55:02.315Z,22.93
2017-11-04T17:57:33.090Z,22.83
2017-11-04T18:00:02.472Z,25.57
2017-11-04T18:02:32.515Z,24.10
2017-11-04T18:05:01.755Z,24.40
2017-11-04T18:07:31.030Z,25.27
2017-11-04T18:10:00.306Z,25.27
2017-11-04T18:12:29.815Z,23.30
2017-11-04T18:14:59.836Z,29.57
2017-11-04T18:17:29.241Z,27.83
2017-11-04T18:19:58.498Z,26.23
2017-11-04T18:22:27.884Z,26.37
2017-11-04T18:24:57.158Z,23.80
2017-11-04T18:27:26.444Z,26.07
2017-11-04T18:29:55.799Z,25.70
2017-11-04T18:32:25.069Z,22.60
2017-11-04T18:34:54.481Z,22.90
2017-11-04T18:37:23.745Z,23.70
2017-11-04T18:39:53.013Z,24.10
2017-11-04T18:42:23.798Z,24.63
2017-11-04T18:44:53.166Z,23.80
2017-11-04T18:47:23.205Z,23.43
2017-11-04T18:49:52.463Z,23.20
2017-11-04T18:52:21.722Z,23.00
2017-11-04T18:54:50.983Z,24.70
2017-11-04T18:57:20.258Z,23.17
2017-11-04T18:59:49.507Z,25.07
2017-11-04T19:02:18.939Z,23.90
2017-11-04T19:04:48.208Z,23.97
2017-11-04T19:07:17.466Z,30.20
2017-11-04T19:09:46.890Z,34.47
2017-11-04T19:12:16.950Z,39.60
2017-11-04T19:14:46.341Z,28.03
2017-11-04T19:17:15.588Z,25.77
2017-11-04T19:19:44.933Z,26.50
2017-11-04T19:22:14.932Z,25.47
2017-11-04T19:24:44.198Z,24.60
2017-11-04T19:27:13.483Z,24.87
2017-11-04T19:29:42.730Z,25.03
2017-11-04T19:32:11.990Z,25.63
2017-11-04T19:34:41.254Z,25.33
2017-11-04T19:37:10.509Z,21.27
2017-11-04T19:39:40.048Z,23.60
2017-11-04T19:42:09.303Z,21.67
2017-11-04T19:44:38.563Z,23.37
2017-11-04T19:47:07.840Z,22.10
2017-11-04T19:49:37.103Z,22.70
2017-11-04T19:52:06.382Z,23.17
2017-11-04T19:54:35.833Z,24.27
2017-11-04T19:57:05.083Z,22.70
2017-11-04T19:59:34.381Z,22.70
2017-11-04T20:02:03.644Z,22.70
2017-11-04T20:04:32.950Z,26.13
2017-11-04T20:07:02.267Z,28.60
2017-11-04T20:09:31.649Z,25.27
2017-11-04T20:12:00.919Z,23.33
2017-11-04T20:14:30.178Z,23.10
2017-11-04T20:16:59.550Z,21.80
2017-11-04T20:19:29.610Z,21.83
2017-11-04T20:21:59.073Z,23.83
2017-11-04T20:24:29.186Z,29.87
2017-11-04T20:26:58.435Z,20.23
2017-11-04T20:29:27.801Z,23.70
2017-11-04T20:31:57.038Z,24.50
2017-11-04T20:34:26.566Z,22.60
2017-11-04T20:36:55.798Z,25.63
2017-11-04T20:39:25.816Z,24.00
2017-11-04T20:41:55.112Z,27.67
2017-11-04T20:44:24.343Z,23.00
2017-11-04T20:46:53.822Z,25.90
2017-11-04T20:49:24.764Z,24.97
2017-11-04T20:51:54.798Z,23.57
2017-11-04T20:54:24.826Z,23.60
2017-11-04T20:56:54.062Z,24.27
2017-11-04T20:59:23.317Z,21.67
2017-11-04T21:01:53.026Z,27.10
2017-11-04T21:04:22.233Z,21.90
2017-11-04T21:06:51.713Z,20.47
2017-11-04T21:09:21.830Z,19.63
2017-11-04T21:11:51.895Z,21.00
2017-11-04T21:14:21.231Z,20.53
2017-11-04T21:16:50.530Z,21.27
2017-11-04T21:19:21.278Z,19.30
2017-11-04T21:21:50.554Z,20.57
2017-11-04T21:24:19.802Z,22.67
2017-11-04T21:26:49.807Z,20.07
2017-11-04T21:29:19.079Z,19.80
2017-11-04T21:31:48.377Z,19.00
2017-11-04T21:34:17.703Z,20.37
2017-11-04T21:36:46.938Z,19.00
2017-11-04T21:39:16.979Z,19.77
2017-11-04T21:41:46.237Z,19.53
2017-11-04T21:44:15.499Z,18.90
2017-11-04T21:46:44.772Z,16.40
2017-11-04T21:49:14.258Z,18.20
2017-11-04T21:51:44.282Z,17.70
2017-11-04T21:54:13.534Z,19.90
2017-11-04T21:56:42.780Z,18.87
2017-11-04T21:59:12.808Z,17.23
2017-11-04T22:01:42.076Z,17.00
2017-11-04T22:04:11.315Z,19.40
2017-11-04T22:06:40.714Z,19.90
2017-11-04T22:09:09.981Z,17.70
2017-11-04T22:11:40.041Z,18.20
2017-11-04T22:14:10.047Z,19.50
2017-11-04T22:16:39.319Z,18.50
2017-11-04T22:19:08.610Z,18.10
2017-11-04T22:21:37.923Z,18.60
2017-11-04T22:24:07.168Z,18.50
2017-11-04T22:26:36.419Z,17.40
2017-11-04T22:29:05.687Z,16.80
2017-11-04T22:31:34.950Z,17.33
2017-11-04T22:34:04.204Z,17.60
2017-11-04T22:36:33.458Z,16.57
2017-11-04T22:39:03.476Z,16.67
2017-11-04T22:41:32.719Z,18.93
2017-11-04T22:44:01.981Z,18.20
2017-11-04T22:46:32.000Z,19.50
2017-11-04T22:49:01.391Z,19.77
2017-11-04T22:51:31.518Z,17.83
2017-11-04T22:54:01.535Z,18.60
2017-11-04T22:56:30.783Z,18.87
2017-11-04T22:59:00.018Z,16.93
2017-11-04T23:01:29.276Z,17.60
2017-11-04T23:03:58.507Z,19.97
2017-11-04T23:06:29.300Z,19.37
2017-11-04T23:08:58.690Z,19.30
2017-11-04T23:11:27.954Z,19.70
2017-11-04T23:13:57.227Z,19.53
2017-11-04T23:16:26.461Z,21.47
2017-11-04T23:18:55.729Z,17.70
2017-11-04T23:21:24.994Z,20.17
2017-11-04T23:23:54.228Z,19.73
2017-11-04T23:26:23.489Z,18.90
2017-11-04T23:28:52.878Z,19.93
2017-11-04T23:31:22.997Z,19.70
2017-11-04T23:33:53.015Z,18.13
2017-11-04T23:36:22.287Z,17.17
2017-11-04T23:38:51.531Z,19.17
2017-11-04T23:41:21.595Z,18.33
2017-11-04T23:43:50.862Z,20.63
2017-11-04T23:46:20.307Z,20.17
2017-11-04T23:48:49.578Z,18.47
2017-11-04T23:51:18.815Z,19.00
2017-11-04T23:53:48.082Z,20.70
2017-11-04T23:56:17.330Z,20.03
2017-11-04T23:58:47.118Z,19.63
